aviador You're here:

KEST Decoded Metar

ESTHERVILLE in IA, USA
Report Time2017-10-21 14:52:00
UTC Time2017-10-21 15:49:04
Flight Rules ifr IFR
Wind170° at 18 Gusting to 26 kt
W.Decomp.*RWY 16: 18.0 kt HW 1.3 kt RCW
RWY 24: 4.4 kt HW 17.5 kt LCW
W.Rank170° ranks 2
Current wind is above 170° avg. (11.4)
Visibility9999 m
Phenomena:N/A
Clouds:Overcast 009 Hf
Ceiling900 ft
Temp16°C (ISA +4)
Dew Point16°C (100% RH)
AAT11.5°C
QNH1004 hPa
Density Alt2,297 ft
Elevation1,316 ft
Report Wrong Elevation
Raw Report
KEST 211452Z AUTO 17018G26KT 8SM OVC009 16/16 A2966 RMK AO2 PK WND
16029/1442 RAE1356 CIG 006V011 SLP039 P0001 60006 T01610161
50004=

Extra information for KEST:More info

Metar Taf Metar & Taf Last 4 Metars F.Rules Stats Wind Profile Meteogram Temp Stats Airport Information Weather charts Add Link Nearby VenuesMetar ALERT Operation Metar Decoded Social comments

AIRNAV info for KEST